createdAt,value
2022-08-17T00:04:18.032Z,1.35
2022-08-17T00:09:20.369Z,0.88
2022-08-17T00:14:22.047Z,1.08
2022-08-17T00:19:25.661Z,0.88
2022-08-17T00:24:28.413Z,1.63
2022-08-17T00:29:30.029Z,1.50
2022-08-17T00:34:31.904Z,1.55
2022-08-17T00:39:35.673Z,1.10
2022-08-17T00:44:37.344Z,1.23
2022-08-17T00:49:38.937Z,1.60
2022-08-17T00:54:46.208Z,1.40
2022-08-17T01:00:02.368Z,1.33
2022-08-17T01:05:08.053Z,1.30
2022-08-17T01:10:57.176Z,1.00
2022-08-17T01:15:37.684Z,1.70
2022-08-17T01:20:48.447Z,1.10
2022-08-17T01:25:52.702Z,1.30
2022-08-17T01:30:57.879Z,1.15
2022-08-17T01:36:00.758Z,0.88
2022-08-17T01:41:08.314Z,0.82
2022-08-17T01:46:16.623Z,0.98
2022-08-17T01:51:19.817Z,1.40
2022-08-17T01:56:24.306Z,0.85
2022-08-17T02:01:30.569Z,0.98
2022-08-17T02:06:53.639Z,1.13
2022-08-17T02:11:58.046Z,0.68
2022-08-17T02:16:59.765Z,2.67
2022-08-17T02:22:01.564Z,1.45
2022-08-17T02:27:03.870Z,1.30
2022-08-17T02:32:06.364Z,0.70
2022-08-17T02:37:08.679Z,1.38
2022-08-17T02:42:10.407Z,1.52
2022-08-17T02:47:12.321Z,1.40
2022-08-17T02:52:17.011Z,1.40
2022-08-17T02:57:39.017Z,0.75
2022-08-17T03:02:42.361Z,1.60
2022-08-17T03:07:44.096Z,1.27
2022-08-17T03:12:46.488Z,1.52
2022-08-17T03:17:48.275Z,2.13
2022-08-17T03:22:55.727Z,2.42
2022-08-17T03:28:06.017Z,1.95
2022-08-17T03:33:10.290Z,1.77
2022-08-17T03:38:15.031Z,1.95
2022-08-17T03:43:21.136Z,1.92
2022-08-17T03:48:42.457Z,2.28
2022-08-17T03:54:17.129Z,1.15
2022-08-17T03:59:24.447Z,1.73
2022-08-17T04:04:28.132Z,2.53
2022-08-17T04:09:29.781Z,2.30
2022-08-17T04:14:36.430Z,1.77
2022-08-17T04:19:55.439Z,1.35
2022-08-17T04:24:57.308Z,1.33
2022-08-17T04:30:00.862Z,1.38
2022-08-17T04:35:02.488Z,1.60
2022-08-17T04:40:27.129Z,1.45
2022-08-17T04:45:32.334Z,1.30
2022-08-17T04:50:42.738Z,1.35
2022-08-17T04:55:46.217Z,1.83
2022-08-17T05:00:47.987Z,2.08
2022-08-17T05:05:50.031Z,2.00
2022-08-17T05:10:52.175Z,0.98
2022-08-17T05:15:56.511Z,2.35
2022-08-17T05:20:58.338Z,1.75
2022-08-17T05:26:00.057Z,1.35
2022-08-17T05:31:04.116Z,2.15
2022-08-17T05:36:08.330Z,2.08
2022-08-17T05:41:11.590Z,2.38
2022-08-17T05:46:19.823Z,1.88
2022-08-17T05:51:31.926Z,1.83
2022-08-17T05:57:12.373Z,2.30
2022-08-17T06:07:58.658Z,2.67
2022-08-17T06:13:21.551Z,2.70
2022-08-17T06:18:29.202Z,1.15
2022-08-17T06:23:36.563Z,2.65
2022-08-17T06:28:49.203Z,2.22
2022-08-17T06:33:50.877Z,2.05
2022-08-17T06:39:03.175Z,2.30
2022-08-17T06:44:49.900Z,1.52
2022-08-17T06:49:58.501Z,2.17
2022-08-17T06:55:20.273Z,2.00
2022-08-17T07:00:26.795Z,1.83
2022-08-17T07:05:42.786Z,1.80
2022-08-17T07:10:54.824Z,1.73
2022-08-17T07:16:07.932Z,1.35
2022-08-17T07:21:26.467Z,1.10
2022-08-17T07:26:28.688Z,1.30
2022-08-17T07:31:33.507Z,1.40
2022-08-17T07:36:35.374Z,1.55
2022-08-17T07:41:53.060Z,1.75
2022-08-17T07:47:38.567Z,2.35
2022-08-17T07:52:51.496Z,1.60
2022-08-17T07:57:59.229Z,1.23
2022-08-17T08:03:14.930Z,1.45
2022-08-17T08:08:26.632Z,1.48
2022-08-17T08:13:30.957Z,1.67
2022-08-17T08:18:53.613Z,1.30
2022-08-17T08:24:25.902Z,2.25
2022-08-17T08:29:41.335Z,1.20
2022-08-17T08:35:08.062Z,1.05
2022-08-17T08:40:31.048Z,1.67
2022-08-17T08:45:41.795Z,2.13
2022-08-17T08:50:57.116Z,2.20
2022-08-17T08:56:30.351Z,1.30
2022-08-17T09:02:00.433Z,1.42
2022-08-17T09:07:07.621Z,1.45
2022-08-17T09:12:32.128Z,1.00
2022-08-17T09:17:43.334Z,1.73
2022-08-17T09:22:50.909Z,1.77
2022-08-17T09:28:00.979Z,1.55
2022-08-17T09:33:08.284Z,1.45
2022-08-17T09:38:21.947Z,1.52
2022-08-17T09:43:54.764Z,1.27
2022-08-17T09:49:11.958Z,1.52
2022-08-17T09:54:40.889Z,1.33
2022-08-17T10:00:16.568Z,2.63
2022-08-17T10:05:22.875Z,0.60
2022-08-17T10:10:56.878Z,1.20
2022-08-17T10:16:11.047Z,1.23
2022-08-17T10:21:33.662Z,1.13
2022-08-17T10:26:56.825Z,1.23
2022-08-17T10:32:08.538Z,1.08
2022-08-17T10:37:28.434Z,0.77
2022-08-17T10:42:37.974Z,1.65
2022-08-17T10:48:07.026Z,0.73
2022-08-17T10:53:19.866Z,1.15
2022-08-17T11:05:16.663Z,0.82
2022-08-17T11:10:51.731Z,1.23
2022-08-17T11:16:35.102Z,1.05
2022-08-17T11:22:01.623Z,1.27
2022-08-17T11:27:06.257Z,1.77
2022-08-17T11:32:27.032Z,1.00
2022-08-17T11:38:02.953Z,2.25
2022-08-17T11:43:28.846Z,1.13
2022-08-17T11:49:19.695Z,1.27
2022-08-17T11:54:33.379Z,0.90
2022-08-17T11:59:40.274Z,1.38
2022-08-17T12:05:16.592Z,0.90
2022-08-17T12:10:22.058Z,1.30
2022-08-17T12:15:35.041Z,1.42
2022-08-17T12:20:40.861Z,2.00
2022-08-17T12:25:56.023Z,2.55
2022-08-17T12:31:02.938Z,1.42
2022-08-17T12:36:08.606Z,1.67
2022-08-17T12:41:29.080Z,1.75
2022-08-17T12:46:46.354Z,1.48
2022-08-17T12:51:48.720Z,1.27
2022-08-17T12:56:50.412Z,1.70
2022-08-17T13:01:54.213Z,1.85
2022-08-17T13:06:59.794Z,2.05
2022-08-17T13:12:03.205Z,1.85
2022-08-17T13:17:12.672Z,1.95
2022-08-17T13:22:15.227Z,2.80
2022-08-17T13:27:21.212Z,2.10
2022-08-17T13:32:44.148Z,2.10
2022-08-17T13:38:03.638Z,2.78
2022-08-17T13:43:05.516Z,2.10
2022-08-17T13:48:16.251Z,2.65
2022-08-17T13:53:31.306Z,1.83
2022-08-17T13:58:51.702Z,2.10
2022-08-17T14:03:53.315Z,3.07
2022-08-17T14:08:55.910Z,1.90
2022-08-17T14:13:58.729Z,2.47
2022-08-17T14:19:00.323Z,2.05
2022-08-17T14:24:07.328Z,2.47
2022-08-17T14:29:12.707Z,2.08
2022-08-17T14:34:17.539Z,2.67
2022-08-17T14:39:20.811Z,2.08
2022-08-17T14:44:22.393Z,1.80
2022-08-17T14:49:25.941Z,2.95
2022-08-17T14:54:34.302Z,2.00
2022-08-17T14:59:37.389Z,2.75
2022-08-17T15:04:44.880Z,2.55
2022-08-17T15:09:47.213Z,4.90
2022-08-17T15:14:49.543Z,2.00
2022-08-17T15:21:26.415Z,2.47
2022-08-17T15:26:54.693Z,3.25
2022-08-17T15:32:00.623Z,2.70
2022-08-17T15:37:02.959Z,2.13
2022-08-17T15:42:06.016Z,2.88
2022-08-17T15:47:07.593Z,3.58
2022-08-17T15:52:21.283Z,1.92
2022-08-17T15:57:27.673Z,2.15
2022-08-17T16:03:45.302Z,2.53
2022-08-17T16:07:53.688Z,2.10
2022-08-17T16:12:58.856Z,2.38
2022-08-17T16:18:00.468Z,1.60
2022-08-17T16:23:03.222Z,1.85
2022-08-17T16:28:07.070Z,1.95
2022-08-17T16:33:11.645Z,1.10
2022-08-17T16:38:13.739Z,1.27
2022-08-17T16:43:15.466Z,1.85
2022-08-17T16:48:18.454Z,1.75
2022-08-17T16:53:20.204Z,1.27
2022-08-17T16:58:21.882Z,1.42
2022-08-17T17:03:26.101Z,1.50
2022-08-17T17:08:44.738Z,1.10
2022-08-17T17:13:59.630Z,2.17
2022-08-17T17:19:34.289Z,1.52
2022-08-17T17:24:56.062Z,2.30
2022-08-17T17:30:15.301Z,1.60
2022-08-17T17:35:31.710Z,1.25
2022-08-17T17:40:39.746Z,1.07
2022-08-17T17:45:52.231Z,1.67
2022-08-17T17:51:14.938Z,1.50
2022-08-17T17:56:50.045Z,1.58
2022-08-17T18:02:42.548Z,2.22
2022-08-17T18:07:57.319Z,1.55
2022-08-17T18:13:17.430Z,1.75
2022-08-17T18:18:38.068Z,1.27
2022-08-17T18:23:50.937Z,1.75
2022-08-17T18:28:55.684Z,1.40
2022-08-17T18:34:43.861Z,1.25
2022-08-17T18:39:43.228Z,2.25
2022-08-17T18:44:46.157Z,0.90
2022-08-17T18:50:19.320Z,0.32
2022-08-17T18:55:29.093Z,1.42
2022-08-17T19:00:35.967Z,1.77
2022-08-17T19:05:48.450Z,0.95
2022-08-17T19:10:58.485Z,1.55
2022-08-17T19:16:20.092Z,0.60
2022-08-17T19:28:44.293Z,1.20
2022-08-17T19:33:51.019Z,2.55
2022-08-17T19:39:05.041Z,1.85
2022-08-17T19:44:16.018Z,1.77
2022-08-17T19:49:41.397Z,2.38
2022-08-17T19:54:58.905Z,2.65
2022-08-17T20:00:13.767Z,2.55
2022-08-17T20:05:48.749Z,3.17
2022-08-17T20:11:20.179Z,2.75
2022-08-17T20:16:22.912Z,3.10
2022-08-17T20:21:41.811Z,3.70
2022-08-17T20:26:58.680Z,3.20
2022-08-17T20:32:00.473Z,2.83
2022-08-17T20:37:17.263Z,4.20
2022-08-17T20:42:21.878Z,3.33
2022-08-17T20:47:31.594Z,2.70
2022-08-17T20:52:50.938Z,3.78
2022-08-17T20:57:52.755Z,3.28
2022-08-17T21:03:26.967Z,2.83
2022-08-17T21:08:35.894Z,3.10
2022-08-17T21:13:52.913Z,3.65
2022-08-17T21:19:19.211Z,3.75
2022-08-17T21:24:48.795Z,3.35
2022-08-17T21:30:15.181Z,2.13
2022-08-17T21:35:20.289Z,2.13
2022-08-17T21:40:29.162Z,2.33
2022-08-17T21:45:37.179Z,2.15
2022-08-17T21:50:41.736Z,1.92
2022-08-17T21:55:48.253Z,3.08
2022-08-17T22:01:21.096Z,3.50
2022-08-17T22:06:33.437Z,3.30
2022-08-17T22:11:56.404Z,2.95
2022-08-17T22:17:30.350Z,2.70
2022-08-17T22:23:18.411Z,2.55
2022-08-17T22:28:37.804Z,2.03
2022-08-17T22:34:01.813Z,1.77
2022-08-17T22:39:09.576Z,2.85
2022-08-17T22:44:23.251Z,2.55
2022-08-17T22:49:33.464Z,3.58
2022-08-17T22:54:54.030Z,1.40
2022-08-17T22:59:55.792Z,1.88
2022-08-17T23:05:42.012Z,1.85
2022-08-17T23:10:46.565Z,2.50
2022-08-17T23:15:51.403Z,2.58
2022-08-17T23:21:07.779Z,2.88
2022-08-17T23:26:11.397Z,3.72
2022-08-17T23:31:18.402Z,4.00
2022-08-17T23:36:52.954Z,4.15
2022-08-17T23:41:56.396Z,3.28
2022-08-17T23:46:58.200Z,2.40
2022-08-17T23:52:01.993Z,2.63
2022-08-17T23:58:10.290Z,2.78
